createdAt,value
2022-08-01T00:01:41.893Z,22.06
2022-08-01T00:04:10.804Z,22.04
2022-08-01T00:06:40.408Z,22.02
2022-08-01T00:09:11.887Z,21.94
2022-08-01T00:11:43.217Z,21.91
2022-08-01T00:14:13.245Z,21.88
2022-08-01T00:16:42.292Z,21.82
2022-08-01T00:19:11.365Z,21.80
2022-08-01T00:21:40.442Z,21.74
2022-08-01T00:24:14.331Z,21.70
2022-08-01T00:26:44.507Z,21.67
2022-08-01T00:30:10.387Z,21.60
2022-08-01T00:31:46.539Z,21.57
2022-08-01T00:34:16.146Z,21.55
2022-08-01T00:36:45.536Z,21.53
2022-08-01T00:39:14.956Z,21.49
2022-08-01T00:41:44.846Z,21.45
2022-08-01T00:44:13.936Z,21.40
2022-08-01T00:46:44.509Z,21.39
2022-08-01T00:49:14.618Z,21.36
2022-08-01T00:51:43.729Z,21.31
2022-08-01T00:54:13.211Z,21.29
2022-08-01T00:56:43.329Z,21.29
2022-08-01T00:59:14.153Z,21.26
2022-08-01T01:01:50.075Z,21.26
2022-08-01T01:04:20.087Z,21.20
2022-08-01T01:07:08.922Z,21.17
2022-08-01T01:09:59.870Z,21.15
2022-08-01T01:13:00.782Z,21.11
2022-08-01T01:15:42.600Z,21.05
2022-08-01T01:18:19.934Z,21.00
2022-08-01T01:21:03.665Z,20.96
2022-08-01T01:23:54.992Z,20.93
2022-08-01T01:27:09.450Z,20.90
2022-08-01T01:29:58.639Z,20.85
2022-08-01T01:32:40.426Z,20.85
2022-08-01T01:35:14.428Z,20.85
2022-08-01T01:37:43.892Z,20.82
2022-08-01T01:40:13.189Z,20.77
2022-08-01T01:42:43.036Z,20.69
2022-08-01T01:45:12.419Z,20.64
2022-08-01T01:47:41.724Z,20.64
2022-08-01T01:50:11.557Z,20.66
2022-08-01T01:52:40.882Z,20.65
2022-08-01T01:55:10.880Z,20.61
2022-08-01T01:57:42.530Z,20.51
2022-08-01T02:00:13.892Z,20.45
2022-08-01T02:02:43.355Z,20.45
2022-08-01T02:05:13.538Z,20.46
2022-08-01T02:07:43.883Z,20.46
2022-08-01T02:10:13.994Z,20.45
2022-08-01T02:12:43.878Z,20.46
2022-08-01T02:15:15.287Z,20.46
2022-08-01T02:17:48.074Z,20.46
2022-08-01T02:20:17.214Z,20.52
2022-08-01T02:22:53.870Z,20.56
2022-08-01T02:25:37.630Z,20.61
2022-08-01T02:28:11.403Z,20.62
2022-08-01T02:30:43.866Z,20.66
2022-08-01T02:33:21.998Z,20.66
2022-08-01T02:36:31.362Z,20.70
2022-08-01T02:38:27.645Z,20.69
2022-08-01T02:40:58.430Z,20.66
2022-08-01T02:43:29.131Z,20.65
2022-08-01T02:46:01.427Z,20.66
2022-08-01T02:48:31.324Z,20.65
2022-08-01T02:51:02.026Z,20.65
2022-08-01T02:53:43.030Z,20.64
2022-08-01T02:56:07.574Z,20.64
2022-08-01T02:58:38.030Z,20.67
2022-08-01T03:01:09.633Z,20.66
2022-08-01T03:03:40.691Z,20.66
2022-08-01T03:06:09.813Z,20.67
2022-08-01T03:08:39.994Z,20.69
2022-08-01T03:11:09.472Z,20.68
2022-08-01T03:13:38.877Z,20.65
2022-08-01T03:16:08.159Z,20.69
2022-08-01T03:18:37.709Z,20.74
2022-08-01T03:21:08.790Z,20.78
2022-08-01T03:23:38.619Z,20.85
2022-08-01T03:26:08.487Z,20.94
2022-08-01T03:28:38.818Z,21.02
2022-08-01T03:31:08.862Z,21.09
2022-08-01T03:33:39.209Z,21.17
2022-08-01T03:36:10.612Z,21.21
2022-08-01T03:38:40.756Z,21.26
2022-08-01T03:41:22.831Z,21.31
2022-08-01T03:44:03.915Z,21.35
2022-08-01T03:46:51.263Z,21.40
2022-08-01T03:49:24.582Z,21.41
2022-08-01T03:51:54.251Z,21.44
2022-08-01T03:54:25.731Z,21.44
2022-08-01T03:56:55.126Z,21.48
2022-08-01T03:59:26.070Z,21.49
2022-08-01T04:01:55.540Z,21.54
2022-08-01T04:04:25.418Z,21.56
2022-08-01T04:06:55.276Z,21.57
2022-08-01T04:09:24.634Z,21.59
2022-08-01T04:11:53.680Z,21.58
2022-08-01T04:14:24.743Z,21.56
2022-08-01T04:16:53.839Z,21.59
2022-08-01T04:19:23.557Z,21.60
2022-08-01T04:21:53.485Z,21.61
2022-08-01T04:24:22.739Z,21.65
2022-08-01T04:26:52.248Z,21.67
2022-08-01T04:29:22.547Z,21.69
2022-08-01T04:31:51.673Z,21.74
2022-08-01T04:34:22.770Z,21.79
2022-08-01T04:36:53.900Z,21.84
2022-08-01T04:39:25.152Z,21.88
2022-08-01T04:41:55.965Z,21.91
2022-08-01T04:44:30.992Z,21.95
2022-08-01T04:47:04.408Z,21.97
2022-08-01T04:49:48.856Z,21.96
2022-08-01T04:52:07.262Z,21.98
2022-08-01T04:54:39.149Z,22.02
2022-08-01T04:57:08.967Z,22.03
2022-08-01T04:59:43.510Z,22.07
2022-08-01T05:02:16.145Z,22.13
2022-08-01T05:04:46.434Z,22.22
2022-08-01T05:07:16.640Z,22.30
2022-08-01T05:09:47.169Z,22.37
2022-08-01T05:12:17.476Z,22.39
2022-08-01T05:14:47.679Z,22.42
2022-08-01T05:17:18.040Z,22.48
2022-08-01T05:19:47.450Z,22.54
2022-08-01T05:22:17.734Z,22.64
2022-08-01T05:24:48.244Z,22.70
2022-08-01T05:27:19.589Z,22.78
2022-08-01T05:29:49.190Z,22.94
2022-08-01T05:32:18.456Z,23.15
2022-08-01T05:34:47.394Z,23.43
2022-08-01T05:37:16.142Z,23.67
2022-08-01T05:39:47.751Z,23.92
2022-08-01T05:42:16.997Z,24.09
2022-08-01T05:44:46.161Z,24.26
2022-08-01T05:47:16.286Z,24.34
2022-08-01T05:49:46.920Z,24.27
2022-08-01T05:52:16.893Z,24.26
2022-08-01T05:54:46.368Z,24.23
2022-08-01T05:57:17.035Z,24.23
2022-08-01T05:59:47.007Z,24.32
2022-08-01T06:02:16.725Z,24.45
2022-08-01T06:04:46.156Z,24.59
2022-08-01T06:07:16.320Z,24.70
2022-08-01T06:09:46.564Z,24.75
2022-08-01T06:12:16.600Z,24.80
2022-08-01T06:14:47.060Z,24.81
2022-08-01T06:17:16.909Z,24.81
2022-08-01T06:19:46.666Z,24.82
2022-08-01T06:22:16.431Z,24.90
2022-08-01T06:24:46.672Z,25.05
2022-08-01T06:27:21.483Z,25.24
2022-08-01T06:29:51.211Z,25.40
2022-08-01T06:32:26.918Z,25.55
2022-08-01T06:34:51.870Z,25.73
2022-08-01T06:37:22.273Z,25.93
2022-08-01T06:39:52.611Z,26.14
2022-08-01T06:42:22.243Z,26.29
2022-08-01T06:44:52.304Z,26.33
2022-08-01T06:47:21.963Z,26.38
2022-08-01T06:49:51.143Z,26.48
2022-08-01T06:52:21.268Z,26.61
2022-08-01T06:54:50.485Z,26.80
2022-08-01T06:57:19.734Z,26.96
2022-08-01T06:59:54.220Z,27.13
2022-08-01T07:02:20.389Z,27.30
2022-08-01T07:04:51.257Z,27.54
2022-08-01T07:07:20.931Z,27.81
2022-08-01T07:09:52.391Z,28.02
2022-08-01T07:12:22.728Z,28.14
2022-08-01T07:14:52.663Z,28.21
2022-08-01T07:17:22.043Z,28.21
2022-08-01T07:19:51.360Z,28.36
2022-08-01T07:22:22.449Z,28.36
2022-08-01T07:24:54.490Z,28.59
2022-08-01T07:27:23.985Z,28.90
2022-08-01T07:29:55.222Z,29.14
2022-08-01T07:32:25.653Z,29.22
2022-08-01T07:34:55.677Z,29.28
2022-08-01T07:37:48.622Z,29.33
2022-08-01T07:39:57.892Z,29.38
2022-08-01T07:42:27.204Z,29.50
2022-08-01T07:44:57.077Z,29.66
2022-08-01T07:47:27.013Z,29.86
2022-08-01T07:50:02.354Z,29.93
2022-08-01T07:52:32.881Z,29.97
2022-08-01T07:55:02.196Z,29.95
2022-08-01T07:57:32.515Z,29.93
2022-08-01T08:00:02.345Z,29.90
2022-08-01T08:02:34.036Z,29.85
2022-08-01T08:05:04.841Z,29.76
2022-08-01T08:07:37.313Z,29.66
2022-08-01T08:10:07.685Z,29.73
2022-08-01T08:12:36.545Z,29.90
2022-08-01T08:15:07.456Z,30.13
2022-08-01T08:17:36.631Z,30.32
2022-08-01T08:20:09.507Z,30.44
2022-08-01T08:22:40.511Z,30.61
2022-08-01T08:25:09.985Z,30.67
2022-08-01T08:27:41.984Z,30.81
2022-08-01T08:30:12.260Z,31.03
2022-08-01T08:32:41.384Z,31.24
2022-08-01T08:35:12.365Z,31.35
2022-08-01T08:37:47.901Z,31.40
2022-08-01T08:40:18.049Z,31.28
2022-08-01T08:42:47.266Z,31.24
2022-08-01T08:45:16.785Z,31.25
2022-08-01T08:47:48.129Z,31.24
2022-08-01T08:50:17.928Z,31.27
2022-08-01T08:52:48.980Z,31.40
2022-08-01T08:55:20.025Z,31.58
2022-08-01T08:57:50.120Z,31.59
2022-08-01T09:00:19.769Z,31.66
2022-08-01T09:02:54.935Z,31.66
2022-08-01T09:05:39.207Z,31.71
2022-08-01T09:07:59.968Z,31.64
2022-08-01T09:10:30.088Z,31.61
2022-08-01T09:13:12.986Z,31.46
2022-08-01T09:15:50.924Z,31.24
2022-08-01T09:18:42.223Z,31.14
2022-08-01T09:21:20.000Z,30.89
2022-08-01T09:23:55.793Z,30.80
2022-08-01T09:26:34.645Z,30.72
2022-08-01T09:29:06.653Z,30.67
2022-08-01T09:31:47.530Z,30.57
2022-08-01T09:34:19.936Z,30.43
2022-08-01T09:36:59.327Z,30.32
2022-08-01T09:39:40.549Z,30.28
2022-08-01T09:42:28.889Z,30.22
2022-08-01T09:44:57.261Z,30.22
2022-08-01T09:47:40.686Z,30.12
2022-08-01T09:50:11.585Z,30.11
2022-08-01T09:52:41.460Z,30.11
2022-08-01T09:55:11.735Z,30.10
2022-08-01T09:57:42.329Z,30.14
2022-08-01T10:00:35.757Z,30.24
2022-08-01T10:02:50.559Z,30.23
2022-08-01T10:05:37.224Z,30.11
2022-08-01T10:08:07.526Z,30.03
2022-08-01T10:10:38.340Z,30.09
2022-08-01T10:13:09.868Z,30.11
2022-08-01T10:15:40.109Z,30.04
2022-08-01T10:18:16.872Z,30.01
2022-08-01T10:20:43.219Z,30.07
2022-08-01T10:23:13.530Z,30.06
2022-08-01T10:25:46.725Z,30.06
2022-08-01T10:28:23.858Z,30.04
2022-08-01T10:30:49.686Z,29.99
2022-08-01T10:33:49.937Z,29.95
2022-08-01T10:35:54.813Z,29.97
2022-08-01T10:38:26.006Z,30.03
2022-08-01T10:40:56.109Z,30.09
2022-08-01T10:43:26.785Z,30.04
2022-08-01T10:45:56.664Z,29.90
2022-08-01T10:48:41.341Z,29.80
2022-08-01T10:51:17.471Z,29.80
2022-08-01T10:53:54.863Z,29.80
2022-08-01T10:56:26.830Z,29.80
2022-08-01T10:59:06.181Z,29.79
2022-08-01T11:01:37.644Z,29.80
2022-08-01T11:04:16.814Z,29.82
2022-08-01T11:07:06.516Z,29.84
2022-08-01T11:09:51.766Z,29.86
2022-08-01T11:12:23.283Z,29.79
2022-08-01T11:15:08.084Z,29.73
2022-08-01T11:17:47.466Z,29.76
2022-08-01T11:20:31.779Z,29.79
2022-08-01T11:23:07.088Z,29.74
2022-08-01T11:26:04.639Z,29.68
2022-08-01T11:28:32.510Z,29.63
2022-08-01T11:31:17.821Z,29.61
2022-08-01T11:33:49.909Z,29.61
2022-08-01T11:36:42.587Z,29.57
2022-08-01T11:39:13.217Z,29.39
2022-08-01T11:41:39.581Z,29.39
2022-08-01T11:44:14.412Z,29.38
2022-08-01T11:47:10.166Z,29.45
2022-08-01T11:49:50.041Z,29.55
2022-08-01T11:52:40.397Z,29.64
2022-08-01T11:55:11.854Z,29.64
2022-08-01T11:57:44.137Z,29.71
2022-08-01T12:00:19.173Z,29.76
2022-08-01T12:02:48.451Z,29.82
2022-08-01T12:05:21.099Z,29.87
2022-08-01T12:07:54.325Z,29.94
2022-08-01T12:10:29.177Z,29.98
2022-08-01T12:13:04.074Z,29.98
2022-08-01T12:15:36.387Z,30.02
2022-08-01T12:18:08.188Z,30.06
2022-08-01T12:20:56.049Z,29.96
2022-08-01T12:23:16.695Z,29.87
2022-08-01T12:25:50.083Z,29.83
2022-08-01T12:28:19.530Z,29.83
2022-08-01T12:30:49.993Z,29.83
2022-08-01T12:33:21.035Z,29.82
2022-08-01T12:35:51.201Z,29.82
2022-08-01T12:38:24.232Z,29.82
2022-08-01T12:40:54.921Z,29.73
2022-08-01T12:43:27.986Z,29.68
2022-08-01T12:46:00.635Z,29.68
2022-08-01T12:48:31.419Z,29.58
2022-08-01T12:51:04.107Z,29.58
2022-08-01T12:53:40.628Z,29.51
2022-08-01T12:56:08.918Z,29.58
2022-08-01T12:58:40.399Z,29.58
2022-08-01T13:01:13.181Z,29.53
2022-08-01T13:03:46.445Z,29.50
2022-08-01T13:06:17.801Z,29.53
2022-08-01T13:08:48.571Z,29.48
2022-08-01T13:11:19.659Z,29.37
2022-08-01T13:13:54.018Z,29.37
2022-08-01T13:16:30.421Z,29.30
2022-08-01T13:19:00.033Z,29.23
2022-08-01T13:21:53.368Z,29.20
2022-08-01T13:24:11.553Z,29.12
2022-08-01T13:26:49.410Z,29.08
2022-08-01T13:29:23.865Z,29.03
2022-08-01T13:31:53.497Z,28.94
2022-08-01T13:34:34.111Z,28.87
2022-08-01T13:37:03.840Z,28.83
2022-08-01T13:39:48.742Z,28.78
2022-08-01T13:42:19.622Z,28.72
2022-08-01T13:44:50.578Z,28.71
2022-08-01T13:47:20.032Z,28.70
2022-08-01T13:49:51.092Z,28.67
2022-08-01T13:52:19.881Z,28.65
2022-08-01T13:54:49.025Z,28.66
2022-08-01T13:57:19.928Z,28.66
2022-08-01T13:59:48.986Z,28.66
2022-08-01T14:02:18.382Z,28.67
2022-08-01T14:04:47.931Z,28.69
2022-08-01T14:07:19.447Z,28.73
2022-08-01T14:09:57.860Z,28.67
2022-08-01T14:12:20.569Z,28.66
2022-08-01T14:14:51.204Z,28.66
2022-08-01T14:17:21.209Z,28.65
2022-08-01T14:19:50.738Z,28.66
2022-08-01T14:22:21.480Z,28.69
2022-08-01T14:24:50.568Z,28.67
2022-08-01T14:27:22.070Z,28.59
2022-08-01T14:30:00.458Z,28.57
2022-08-01T14:32:28.881Z,28.50
2022-08-01T14:34:54.807Z,28.44
2022-08-01T14:37:29.138Z,28.41
2022-08-01T14:39:56.305Z,28.42
2022-08-01T14:42:26.102Z,28.40
2022-08-01T14:44:55.990Z,28.29
2022-08-01T14:47:25.656Z,28.20
2022-08-01T14:49:56.120Z,28.17
2022-08-01T14:52:25.696Z,28.14
2022-08-01T14:54:54.994Z,28.13
2022-08-01T14:57:24.453Z,28.12
2022-08-01T14:59:54.043Z,28.12
2022-08-01T15:02:23.263Z,28.13
2022-08-01T15:04:53.500Z,28.06
2022-08-01T15:07:23.551Z,27.97
2022-08-01T15:09:53.095Z,27.90
2022-08-01T15:12:23.810Z,27.79
2022-08-01T15:14:52.989Z,27.68
2022-08-01T15:17:30.137Z,27.63
2022-08-01T15:20:03.660Z,27.63
2022-08-01T15:22:33.985Z,27.57
2022-08-01T15:25:03.835Z,27.45
2022-08-01T15:27:34.716Z,27.38
2022-08-01T15:30:05.210Z,27.33
2022-08-01T15:32:34.730Z,27.29
2022-08-01T15:35:05.690Z,27.21
2022-08-01T15:37:42.272Z,27.13
2022-08-01T15:40:09.655Z,27.05
2022-08-01T15:42:39.541Z,27.02
2022-08-01T15:45:20.703Z,26.96
2022-08-01T15:47:41.130Z,26.92
2022-08-01T15:50:11.037Z,26.88
2022-08-01T15:52:40.521Z,26.84
2022-08-01T15:55:11.149Z,26.84
2022-08-01T15:57:43.153Z,26.81
2022-08-01T16:00:14.725Z,26.77
2022-08-01T16:02:43.663Z,26.70
2022-08-01T16:05:13.671Z,26.64
2022-08-01T16:07:59.424Z,26.61
2022-08-01T16:10:17.501Z,26.58
2022-08-01T16:12:46.757Z,26.57
2022-08-01T16:15:16.707Z,26.54
2022-08-01T16:17:46.273Z,26.53
2022-08-01T16:20:15.172Z,26.54
2022-08-01T16:22:44.949Z,26.54
2022-08-01T16:25:15.385Z,26.50
2022-08-01T16:27:46.427Z,26.46
2022-08-01T16:30:16.090Z,26.44
2022-08-01T16:32:47.954Z,26.43
2022-08-01T16:35:18.688Z,26.39
2022-08-01T16:37:48.544Z,26.31
2022-08-01T16:40:19.339Z,26.27
2022-08-01T16:42:49.643Z,26.28
2022-08-01T16:45:21.422Z,26.22
2022-08-01T16:47:52.289Z,26.20
2022-08-01T16:50:27.972Z,26.17
2022-08-01T16:52:53.685Z,26.14
2022-08-01T16:55:24.112Z,26.08
2022-08-01T16:57:55.209Z,26.05
2022-08-01T17:00:26.183Z,25.99
2022-08-01T17:02:57.237Z,25.97
2022-08-01T17:05:28.671Z,25.94
2022-08-01T17:07:59.171Z,25.90
2022-08-01T17:10:29.400Z,25.88
2022-08-01T17:12:58.836Z,25.87
2022-08-01T17:15:34.418Z,25.84
2022-08-01T17:18:02.867Z,25.77
2022-08-01T17:20:32.027Z,25.76
2022-08-01T17:23:02.075Z,25.72
2022-08-01T17:25:32.042Z,25.70
2022-08-01T17:28:01.612Z,25.65
2022-08-01T17:30:31.841Z,25.63
2022-08-01T17:33:02.381Z,25.57
2022-08-01T17:35:32.592Z,25.53
2022-08-01T17:38:02.352Z,25.49
2022-08-01T17:40:40.263Z,25.45
2022-08-01T17:43:03.265Z,25.42
2022-08-01T17:45:39.331Z,25.40
2022-08-01T17:48:05.475Z,25.39
2022-08-01T17:50:36.188Z,25.36
2022-08-01T17:53:06.388Z,25.33
2022-08-01T17:55:55.516Z,25.32
2022-08-01T17:58:09.526Z,25.29
2022-08-01T18:00:39.361Z,25.29
2022-08-01T18:03:08.643Z,25.25
2022-08-01T18:05:38.486Z,25.23
2022-08-01T18:08:08.065Z,25.18
2022-08-01T18:10:40.030Z,25.16
2022-08-01T18:13:11.037Z,25.16
2022-08-01T18:15:41.016Z,25.14
2022-08-01T18:18:12.815Z,25.11
2022-08-01T18:20:42.754Z,25.08
2022-08-01T18:23:12.680Z,25.08
2022-08-01T18:25:42.073Z,25.05
2022-08-01T18:28:23.457Z,25.03
2022-08-01T18:30:43.727Z,25.00
2022-08-01T18:33:13.784Z,24.98
2022-08-01T18:35:53.482Z,24.94
2022-08-01T18:38:17.525Z,24.91
2022-08-01T18:40:47.052Z,24.90
2022-08-01T18:43:16.374Z,24.92
2022-08-01T18:45:46.817Z,24.91
2022-08-01T18:48:17.400Z,24.83
2022-08-01T18:50:47.297Z,24.74
2022-08-01T18:53:18.869Z,24.69
2022-08-01T18:55:48.628Z,24.65
2022-08-01T18:58:18.372Z,24.61
2022-08-01T19:00:48.512Z,24.60
2022-08-01T19:03:20.488Z,24.61
2022-08-01T19:05:50.102Z,24.61
2022-08-01T19:08:20.033Z,24.56
2022-08-01T19:10:49.609Z,24.50
2022-08-01T19:13:20.621Z,24.47
2022-08-01T19:15:50.205Z,24.42
2022-08-01T19:18:19.386Z,24.36
2022-08-01T19:20:49.486Z,24.38
2022-08-01T19:23:37.898Z,24.39
2022-08-01T19:26:13.114Z,24.35
2022-08-01T19:28:47.815Z,24.33
2022-08-01T19:31:17.333Z,24.32
2022-08-01T19:33:48.170Z,24.31
2022-08-01T19:36:17.952Z,24.32
2022-08-01T19:38:47.311Z,24.31
2022-08-01T19:41:17.965Z,24.32
2022-08-01T19:43:47.921Z,24.31
2022-08-01T19:46:18.174Z,24.30
2022-08-01T19:48:53.592Z,24.29
2022-08-01T19:51:22.734Z,24.27
2022-08-01T19:53:55.191Z,24.27
2022-08-01T19:56:27.216Z,24.24
2022-08-01T19:59:00.317Z,24.21
2022-08-01T20:01:29.605Z,24.14
2022-08-01T20:03:59.831Z,24.13
2022-08-01T20:06:31.266Z,24.10
2022-08-01T20:09:01.380Z,24.08
2022-08-01T20:11:31.190Z,24.03
2022-08-01T20:14:01.190Z,23.97
2022-08-01T20:16:32.409Z,23.94
2022-08-01T20:19:02.145Z,23.91
2022-08-01T20:21:31.111Z,23.92
2022-08-01T20:24:02.458Z,23.91
2022-08-01T20:26:32.599Z,23.87
2022-08-01T20:29:02.738Z,23.88
2022-08-01T20:31:42.848Z,23.88
2022-08-01T20:34:06.273Z,23.92
2022-08-01T20:36:36.408Z,23.93
2022-08-01T20:39:05.761Z,23.92
2022-08-01T20:41:37.970Z,23.89
2022-08-01T20:44:07.350Z,23.86
2022-08-01T20:46:38.992Z,23.87
2022-08-01T20:49:09.429Z,23.86
2022-08-01T20:51:42.373Z,23.85
2022-08-01T20:54:10.738Z,23.84
2022-08-01T20:56:48.294Z,23.83
2022-08-01T21:00:01.781Z,23.83
2022-08-01T21:02:51.594Z,23.83
2022-08-01T21:05:39.887Z,23.80
2022-08-01T21:08:24.723Z,23.80
2022-08-01T21:10:59.451Z,23.80
2022-08-01T21:13:42.457Z,23.81
2022-08-01T21:16:24.153Z,23.81
2022-08-01T21:19:17.939Z,23.79
2022-08-01T21:21:28.388Z,23.76
2022-08-01T21:24:05.200Z,23.71
2022-08-01T21:26:35.907Z,23.68
2022-08-01T21:29:07.087Z,23.65
2022-08-01T21:31:37.818Z,23.64
2022-08-01T21:34:09.420Z,23.67
2022-08-01T21:36:39.589Z,23.67
2022-08-01T21:39:09.686Z,23.66
2022-08-01T21:42:03.360Z,23.63
2022-08-01T21:44:13.133Z,23.56
2022-08-01T21:46:42.838Z,23.50
2022-08-01T21:49:13.307Z,23.47
2022-08-01T21:51:52.117Z,23.44
2022-08-01T21:54:42.058Z,23.37
2022-08-01T21:57:57.667Z,23.36
2022-08-01T22:00:26.938Z,23.36
2022-08-01T22:03:19.999Z,23.32
2022-08-01T22:05:51.641Z,23.25
2022-08-01T22:08:36.842Z,23.19
2022-08-01T22:11:08.950Z,23.18
2022-08-01T22:13:39.547Z,23.21
2022-08-01T22:16:09.680Z,23.23
2022-08-01T22:18:40.064Z,23.25
2022-08-01T22:21:09.698Z,23.30
2022-08-01T22:23:39.946Z,23.31
2022-08-01T22:26:10.790Z,23.30
2022-08-01T22:28:40.991Z,23.27
2022-08-01T22:31:11.801Z,23.23
2022-08-01T22:33:46.225Z,23.22
2022-08-01T22:36:15.482Z,23.22
2022-08-01T22:38:49.403Z,23.22
2022-08-01T22:41:22.008Z,23.23
2022-08-01T22:44:02.311Z,23.27
2022-08-01T22:47:03.175Z,23.27
2022-08-01T22:49:40.462Z,23.26
2022-08-01T22:52:23.029Z,23.29
2022-08-01T22:54:59.006Z,23.30
2022-08-01T22:57:48.589Z,23.30
2022-08-01T23:00:16.493Z,23.28
2022-08-01T23:02:55.353Z,23.24
2022-08-01T23:05:26.070Z,23.23
2022-08-01T23:07:56.898Z,23.23
2022-08-01T23:10:27.875Z,23.21
2022-08-01T23:12:57.711Z,23.18
2022-08-01T23:15:27.155Z,23.16
2022-08-01T23:17:57.420Z,23.12
2022-08-01T23:20:27.421Z,23.11
2022-08-01T23:22:57.598Z,23.06
2022-08-01T23:25:27.308Z,23.01
2022-08-01T23:28:05.345Z,23.00
2022-08-01T23:30:31.705Z,23.01
2022-08-01T23:33:01.520Z,23.03
2022-08-01T23:35:31.818Z,23.05
2022-08-01T23:38:03.899Z,23.09
2022-08-01T23:40:34.265Z,23.11
2022-08-01T23:43:05.053Z,23.12
2022-08-01T23:46:01.738Z,23.11
2022-08-01T23:48:06.431Z,23.11
2022-08-01T23:50:36.552Z,23.13
2022-08-01T23:53:06.985Z,23.13
2022-08-01T23:55:37.586Z,23.14
2022-08-01T23:58:07.835Z,23.13
